Time;durP1;ratioP1;P1;durP2;ratioP2;P2;SDS_P1;SDS_P2;PMS_P1;PMS_P2;Temp;Humidity;BMP_temperature;BMP_pressure;BME280_temperature;BME280_humidity;BME280_pressure;Samples;Min_cycle;Max_cycle;Signal;HPM_P1;HPM_P2
2024/01/09 00:02:18;;;;;;;30.58;12.20;;;;;;;15.31;100.00;100779.78;10543624;28;20044;-74
2024/01/09 00:07:40;;;;;;;44.22;8.10;;;;;;;15.55;100.00;100773.53;10529742;28;20048;-74
2024/01/09 00:13:05;;;;;;;37.03;5.75;;;;;;;15.74;100.00;100753.94;10528239;28;20114;-76
2024/01/09 00:18:27;;;;;;;35.35;4.18;;;;;;;15.84;100.00;100739.66;10541651;28;20143;-76
2024/01/09 00:23:50;;;;;;;39.88;4.38;;;;;;;16.19;100.00;100750.06;10532086;28;20067;-76
2024/01/09 00:29:14;;;;;;;49.60;7.88;;;;;;;16.33;100.00;100763.28;10548786;28;20093;-75
2024/01/09 00:34:36;;;;;;;43.83;5.05;;;;;;;16.41;100.00;100749.91;10549494;28;20134;-76
2024/01/09 00:39:59;;;;;;;49.28;5.22;;;;;;;16.35;100.00;100749.03;10536624;28;20056;-75
2024/01/09 00:45:23;;;;;;;35.35;3.95;;;;;;;16.33;100.00;100733.97;10536151;28;20040;-75
2024/01/09 00:50:45;;;;;;;51.80;6.55;;;;;;;16.34;100.00;100735.75;10522184;28;20059;-74
2024/01/09 00:56:07;;;;;;;51.17;5.60;;;;;;;16.40;100.00;100748.13;10536446;28;20047;-74
2024/01/09 01:01:31;;;;;;;58.28;6.03;;;;;;;16.40;100.00;100730.38;10534161;28;20385;-75
2024/01/09 01:06:54;;;;;;;54.15;6.00;;;;;;;16.42;100.00;100727.66;10512873;28;20063;-75
2024/01/09 01:12:16;;;;;;;45.38;4.68;;;;;;;16.55;100.00;100716.88;10535249;28;20040;-75
2024/01/09 01:17:40;;;;;;;47.65;4.63;;;;;;;16.37;100.00;100703.75;10524874;28;20087;-75
2024/01/09 01:23:03;;;;;;;53.63;7.15;;;;;;;16.31;100.00;100693.13;10521407;28;20499;-75
2024/01/09 01:28:25;;;;;;;42.63;4.38;;;;;;;16.39;100.00;100677.97;10534669;28;20498;-74
2024/01/09 01:33:49;;;;;;;61.30;7.30;;;;;;;16.48;100.00;100668.97;10531249;28;20040;-75
2024/01/09 01:39:12;;;;;;;50.15;6.88;;;;;;;16.46;100.00;100647.72;10520143;28;20120;-74
2024/01/09 01:44:34;;;;;;;44.15;5.45;;;;;;;16.40;100.00;100630.91;10533673;28;20052;-75
2024/01/09 01:49:58;;;;;;;30.50;4.32;;;;;;;16.44;100.00;100636.16;10548197;28;20102;-75
2024/01/09 01:55:25;;;;;;;44.22;4.68;;;;;;;16.56;100.00;100612.06;10548198;28;20048;-74
2024/01/09 02:00:47;;;;;;;44.08;6.75;;;;;;;16.57;100.00;100600.50;10507491;28;20048;-74
2024/01/09 02:06:13;;;;;;;57.17;6.00;;;;;;;16.67;100.00;100601.31;10533276;28;20134;-75
2024/01/09 02:11:35;;;;;;;48.63;5.57;;;;;;;16.65;100.00;100590.66;10533197;28;20059;-75
2024/01/09 02:16:58;;;;;;;36.85;5.55;;;;;;;16.69;100.00;100591.50;10530416;28;20051;-74
2024/01/09 02:22:23;;;;;;;45.90;5.63;;;;;;;16.78;100.00;100587.84;10532482;28;20044;-74
2024/01/09 02:27:57;;;;;;;43.42;5.00;;;;;;;16.62;100.00;100588.03;10524108;28;20058;-75
2024/01/09 02:33:21;;;;;;;42.90;5.18;;;;;;;16.57;100.00;100579.19;10530720;28;20048;-75
2024/01/09 02:38:44;;;;;;;50.67;4.65;;;;;;;16.56;100.00;100577.41;10517380;28;20051;-76
2024/01/09 02:44:06;;;;;;;59.10;6.20;;;;;;;16.66;100.00;100565.78;10530243;28;20058;-75
2024/01/09 02:49:31;;;;;;;48.33;5.13;;;;;;;16.80;100.00;100583.38;10531541;28;20059;-75
2024/01/09 02:54:53;;;;;;;48.10;5.22;;;;;;;16.59;100.00;100572.06;10530387;28;20059;-75
2024/01/09 03:00:16;;;;;;;48.65;5.18;;;;;;;16.22;100.00;100568.00;10515041;28;20048;-74
2024/01/09 03:05:40;;;;;;;46.90;6.43;;;;;;;15.95;100.00;100577.16;10530488;28;20514;-74
2024/01/09 03:11:03;;;;;;;44.30;5.53;;;;;;;16.07;100.00;100565.53;10529917;28;20048;-75
2024/01/09 03:16:25;;;;;;;56.78;8.45;;;;;;;15.99;100.00;100562.06;10530969;28;20485;-74
2024/01/09 03:21:49;;;;;;;51.58;6.32;;;;;;;15.71;100.00;100567.63;10515860;28;20478;-74
2024/01/09 03:27:12;;;;;;;47.80;7.63;;;;;;;15.59;100.00;100551.78;10537151;28;20052;-75
2024/01/09 03:32:34;;;;;;;63.53;7.88;;;;;;;15.52;100.00;100550.00;10514038;28;20044;-75
2024/01/09 03:37:58;;;;;;;54.83;7.18;;;;;;;15.71;100.00;100541.00;10530046;28;20508;-75
2024/01/09 03:43:21;;;;;;;65.78;7.47;;;;;;;16.13;100.00;100529.06;10513149;28;20120;-74
2024/01/09 03:48:43;;;;;;;53.60;5.75;;;;;;;15.98;100.00;100523.91;10542411;28;20044;-74
2024/01/09 03:54:07;;;;;;;60.75;8.68;;;;;;;16.53;100.00;100517.94;10507181;28;20470;-75
2024/01/09 03:59:30;;;;;;;72.82;8.68;;;;;;;16.58;100.00;100511.66;10536505;28;20079;-75
2024/01/09 04:04:52;;;;;;;56.15;7.32;;;;;;;16.57;100.00;100507.22;10537568;28;20530;-74
2024/01/09 04:10:16;;;;;;;48.70;4.68;;;;;;;16.64;100.00;100518.72;10542546;28;20040;-74
2024/01/09 04:15:39;;;;;;;66.80;7.28;;;;;;;16.79;100.00;100520.31;10523278;28;20051;-74
2024/01/09 04:21:02;;;;;;;65.93;8.23;;;;;;;16.96;100.00;100539.59;10527340;28;20655;-75
2024/01/09 04:26:26;;;;;;;62.10;7.47;;;;;;;16.76;100.00;100544.31;10537052;28;20056;-74
2024/01/09 04:31:48;;;;;;;63.85;8.15;;;;;;;16.55;100.00;100538.31;10536015;28;20511;-75
2024/01/09 04:37:11;;;;;;;39.95;6.93;;;;;;;15.94;100.00;100532.81;10536728;28;20516;-75
2024/01/09 04:42:34;;;;;;;63.80;7.65;;;;;;;15.59;100.00;100538.47;10535376;28;20048;-75
2024/01/09 04:47:57;;;;;;;54.78;7.88;;;;;;;15.55;100.00;100531.41;10532166;28;20044;-75
2024/01/09 04:53:19;;;;;;;70.82;7.38;;;;;;;15.71;100.00;100534.81;10535688;28;20483;-74
2024/01/09 04:58:43;;;;;;;52.72;6.15;;;;;;;15.81;100.00;100524.09;10522275;28;20059;-74
2024/01/09 05:04:06;;;;;;;53.03;6.93;;;;;;;15.82;100.00;100520.50;10518637;28;20102;-74
2024/01/09 05:09:28;;;;;;;53.65;6.15;;;;;;;15.67;100.00;100510.00;10518573;28;20044;-75
2024/01/09 05:14:53;;;;;;;46.92;15.38;;;;;;;15.41;100.00;100506.66;10534905;28;20052;-74
2024/01/09 05:20:16;;;;;;;57.90;8.80;;;;;;;15.26;100.00;100493.47;10535297;28;20044;-74
2024/01/09 05:25:39;;;;;;;51.47;7.85;;;;;;;15.54;100.00;100497.72;10518307;28;20055;-74
2024/01/09 05:31:04;;;;;;;54.53;6.80;;;;;;;15.56;100.00;100477.28;10531698;28;20442;-75
2024/01/09 05:36:27;;;;;;;40.90;7.60;;;;;;;15.59;100.00;100477.25;10520306;28;20437;-74
2024/01/09 05:41:49;;;;;;;43.28;5.55;;;;;;;15.81;100.00;100483.25;10519404;28;20047;-73
2024/01/09 05:47:13;;;;;;;45.70;7.65;;;;;;;15.84;100.00;100481.44;10520543;28;20059;-75
2024/01/09 05:52:37;;;;;;;71.25;26.33;;;;;;;15.89;100.00;100476.94;10519948;28;20044;-74
2024/01/09 05:57:59;;;;;;;42.47;10.20;;;;;;;15.97;100.00;100482.19;10533540;28;20055;-75
2024/01/09 06:03:23;;;;;;;54.78;7.85;;;;;;;16.04;100.00;100475.91;10512819;28;20058;-74
2024/01/09 06:08:48;;;;;;;41.10;5.78;;;;;;;16.21;100.00;100473.91;10528213;28;20134;-75
2024/01/09 06:14:11;;;;;;;44.33;6.40;;;;;;;16.48;97.36;100496.66;10515082;28;20527;-75
2024/01/09 06:19:35;;;;;;;33.42;4.97;;;;;;;16.86;93.71;100500.66;10532522;28;20052;-74
2024/01/09 06:24:58;;;;;;;37.42;6.68;;;;;;;17.51;89.70;100516.53;10517703;28;20146;-75
2024/01/09 06:30:21;;;;;;;51.42;26.30;;;;;;;18.18;82.51;100527.81;10515959;28;20048;-74
2024/01/09 06:35:45;;;;;;;77.72;42.42;;;;;;;18.55;76.04;100536.88;10516427;28;20434;-75
2024/01/09 06:41:07;;;;;;;42.58;15.05;;;;;;;17.96;80.73;100535.34;10515673;28;20044;-75
2024/01/09 06:46:29;;;;;;;56.40;9.73;;;;;;;17.50;84.83;100524.53;10515736;28;20055;-75
2024/01/09 06:51:53;;;;;;;33.72;8.63;;;;;;;17.31;87.41;100534.63;10516583;28;20044;-74
2024/01/09 06:57:16;;;;;;;40.83;8.65;;;;;;;17.50;87.09;100552.13;10531127;28;20054;-75
2024/01/09 07:02:38;;;;;;;36.95;6.28;;;;;;;17.79;83.19;100573.00;10514061;28;20044;-75
2024/01/09 07:08:03;;;;;;;57.83;26.83;;;;;;;17.93;80.39;100600.38;10528017;28;20042;-75
2024/01/09 07:13:25;;;;;;;72.28;35.85;;;;;;;17.93;80.99;100623.53;10529219;28;20047;-75
2024/01/09 07:18:48;;;;;;;35.42;7.88;;;;;;;18.00;79.22;100627.84;10525950;28;20044;-76
2024/01/09 07:24:12;;;;;;;35.30;8.23;;;;;;;18.05;76.77;100619.78;10529211;28;20492;-75
2024/01/09 07:29:35;;;;;;;44.30;11.05;;;;;;;18.17;74.96;100623.13;10510416;28;20036;-75
2024/01/09 07:34:57;;;;;;;47.55;10.20;;;;;;;18.24;72.92;100624.78;10510615;28;20052;-75
2024/01/09 07:40:22;;;;;;;36.92;9.73;;;;;;;18.36;74.49;100634.34;10514758;28;20044;-74
2024/01/09 07:45:46;;;;;;;38.20;10.38;;;;;;;18.54;73.11;100635.78;10514018;28;20054;-74
2024/01/09 07:51:09;;;;;;;36.25;8.50;;;;;;;18.10;73.89;100644.63;10514587;28;20051;-75
2024/01/09 07:56:33;;;;;;;34.00;6.55;;;;;;;17.80;78.17;100649.53;10528929;28;20040;-75
2024/01/09 08:01:55;;;;;;;29.65;8.02;;;;;;;18.00;78.59;100657.25;10513570;28;20055;-75
2024/01/09 08:07:18;;;;;;;42.08;10.93;;;;;;;18.27;76.74;100664.78;10541076;28;20753;-74
2024/01/09 08:12:42;;;;;;;36.15;5.40;;;;;;;18.08;81.69;100655.34;10525898;28;20081;-75
2024/01/09 08:18:04;;;;;;;52.17;24.38;;;;;;;17.76;90.66;100649.63;10514975;28;20059;-75
2024/01/09 08:23:27;;;;;;;51.35;24.60;;;;;;;17.56;96.95;100649.00;10529466;28;20561;-75
2024/01/09 08:28:51;;;;;;;42.15;5.68;;;;;;;17.39;98.79;100635.94;10528146;28;20044;-74
2024/01/09 08:34:14;;;;;;;23.08;4.05;;;;;;;17.15;100.00;100621.13;10519755;28;20044;-76
2024/01/09 08:39:37;;;;;;;34.45;6.95;;;;;;;17.17;100.00;100600.66;10514788;28;20395;-75
2024/01/09 08:45:01;;;;;;;30.80;7.82;;;;;;;17.56;100.00;100607.19;10531132;28;20040;-75
2024/01/09 08:50:23;;;;;;;21.38;5.03;;;;;;;18.91;90.19;100617.25;10521467;28;20059;-76
2024/01/09 08:55:45;;;;;;;27.27;7.72;;;;;;;19.54;80.22;100641.78;10535208;28;20511;-76
2024/01/09 09:01:10;;;;;;;24.98;3.70;;;;;;;21.16;68.37;100644.66;10533367;28;20052;-76
2024/01/09 09:06:33;;;;;;;11.25;3.10;;;;;;;22.75;51.79;100640.34;10534082;28;20044;-75
2024/01/09 09:11:55;;;;;;;14.40;3.38;;;;;;;21.99;54.27;100618.78;10521972;28;20075;-77
2024/01/09 09:17:19;;;;;;;26.85;7.43;;;;;;;23.14;50.58;100609.22;10522543;28;20052;-75
2024/01/09 09:22:42;;;;;;;18.30;6.90;;;;;;;24.20;48.72;100609.44;10520056;28;20230;-76
2024/01/09 09:28:05;;;;;;;16.65;2.53;;;;;;;23.71;49.96;100603.38;10531744;28;20071;-76
2024/01/09 09:33:31;;;;;;;8.63;2.40;;;;;;;22.66;59.36;100583.19;10520880;28;20097;-76
2024/01/09 09:38:53;;;;;;;10.95;2.72;;;;;;;22.25;61.84;100592.75;10535256;28;20054;-76
2024/01/09 09:44:17;;;;;;;5.70;1.60;;;;;;;22.24;62.35;100588.31;10534784;28;20113;-76
2024/01/09 09:49:42;;;;;;;9.63;1.60;;;;;;;21.73;64.31;100588.22;10535051;28;20455;-75
2024/01/09 09:55:06;;;;;;;8.52;1.70;;;;;;;20.94;70.58;100589.81;10533277;28;20051;-76
2024/01/09 10:00:28;;;;;;;6.53;1.35;;;;;;;20.35;75.89;100581.66;10548681;28;20047;-75
2024/01/09 10:05:56;;;;;;;18.20;9.05;;;;;;;19.60;81.97;100577.34;10518257;28;20504;-75
2024/01/09 10:11:19;;;;;;;6.63;2.90;;;;;;;19.08;86.05;100581.22;10533059;28;20047;-76
2024/01/09 10:16:50;;;;;;;9.52;2.80;;;;;;;19.20;86.50;100582.72;10532125;28;20048;-75
2024/01/09 10:22:15;;;;;;;8.52;2.38;;;;;;;21.17;69.33;100560.50;10533706;28;20083;-77
2024/01/09 10:27:38;;;;;;;11.85;4.95;;;;;;;21.27;64.73;100561.97;10503718;28;20062;-76
2024/01/09 10:33:00;;;;;;;9.85;1.95;;;;;;;20.70;68.97;100564.59;10532373;28;20071;-76
2024/01/09 10:38:27;;;;;;;9.80;2.67;;;;;;;20.63;69.32;100566.56;10529259;28;20147;-74
2024/01/09 10:43:50;;;;;;;7.97;1.52;;;;;;;20.60;67.33;100558.63;10516740;28;20555;-74
2024/01/09 10:49:14;;;;;;;23.65;9.38;;;;;;;20.50;66.91;100558.91;10531152;28;20048;-74
2024/01/09 10:54:40;;;;;;;7.95;2.83;;;;;;;20.87;61.06;100564.09;10505023;28;20050;-75
2024/01/09 11:00:10;;;;;;;15.27;8.48;;;;;;;21.26;58.21;100564.72;10497336;28;20065;-76
2024/01/09 11:05:32;;;;;;;16.07;7.60;;;;;;;21.56;56.84;100562.84;10531558;28;20514;-75
2024/01/09 11:10:57;;;;;;;7.45;4.00;;;;;;;21.94;55.07;100559.75;10477730;28;20052;-76
2024/01/09 11:16:22;;;;;;;9.38;1.35;;;;;;;21.81;54.99;100550.34;10526300;28;20043;-74
2024/01/09 11:21:44;;;;;;;4.18;1.48;;;;;;;23.18;50.93;100543.50;10522396;28;20048;-74
2024/01/09 11:27:13;;;;;;;5.22;1.08;;;;;;;25.77;42.01;100530.03;10487978;28;20050;-75
2024/01/09 11:32:35;;;;;;;3.40;1.80;;;;;;;26.32;39.36;100528.06;10513273;28;20554;-77
2024/01/09 11:38:00;;;;;;;5.85;2.85;;;;;;;26.35;39.22;100524.31;10524612;28;20531;-77
2024/01/09 11:43:29;;;;;;;10.32;3.97;;;;;;;25.01;40.26;100515.72;10513856;28;20067;-77
2024/01/09 11:48:59;;;;;;;11.43;5.25;;;;;;;23.46;43.78;100524.44;10510471;28;20113;-75
2024/01/09 11:54:22;;;;;;;10.48;2.60;;;;;;;22.45;46.08;100513.16;10521287;28;20044;-75
2024/01/09 11:59:49;;;;;;;6.82;2.53;;;;;;;21.81;49.54;100507.34;10515517;28;20508;-75
2024/01/09 12:05:11;;;;;;;5.00;1.65;;;;;;;21.84;49.83;100523.38;10518506;28;20084;-77
2024/01/09 12:10:34;;;;;;;8.70;2.22;;;;;;;21.73;51.33;100523.72;10507278;28;20048;-76
2024/01/09 12:15:58;;;;;;;8.20;1.63;;;;;;;21.57;53.40;100525.19;10524457;28;20094;-75
2024/01/09 12:21:20;;;;;;;7.80;1.90;;;;;;;21.56;53.82;100527.91;10516683;28;20051;-75
2024/01/09 12:26:44;;;;;;;8.57;2.67;;;;;;;21.34;54.61;100525.94;10526191;28;20045;-75
2024/01/09 12:32:09;;;;;;;7.97;2.33;;;;;;;21.09;54.68;100525.81;10505026;28;20055;-77
2024/01/09 12:37:32;;;;;;;8.38;1.90;;;;;;;21.00;55.32;100526.09;10542931;28;20449;-75
2024/01/09 12:43:11;;;;;;;11.48;2.60;;;;;;;21.02;55.17;100536.78;10533983;28;20040;-74
2024/01/09 12:48:35;;;;;;;7.20;2.55;;;;;;;21.12;54.03;100545.44;10514152;28;20048;-75
2024/01/09 12:53:57;;;;;;;7.60;2.92;;;;;;;21.08;53.53;100550.00;10518097;28;20073;-77
2024/01/09 12:59:26;;;;;;;4.85;1.80;;;;;;;20.76;53.26;100571.56;10530792;28;20181;-76
2024/01/09 13:04:50;;;;;;;4.85;1.13;;;;;;;20.45;53.73;100566.22;10535884;28;20139;-77
2024/01/09 13:10:13;;;;;;;2.95;1.90;;;;;;;20.21;54.79;100557.91;10518763;28;20043;-77
2024/01/09 13:15:35;;;;;;;9.20;2.78;;;;;;;20.10;55.73;100575.16;10525290;28;20040;-73
2024/01/09 13:20:59;;;;;;;6.53;1.63;;;;;;;20.04;56.20;100569.97;10529417;28;20044;-76
2024/01/09 13:26:22;;;;;;;7.30;2.22;;;;;;;20.00;56.97;100566.50;10514239;28;20047;-76
2024/01/09 13:31:44;;;;;;;5.95;2.88;;;;;;;19.99;57.84;100575.47;10516807;28;20056;-75
2024/01/09 13:37:08;;;;;;;8.23;2.10;;;;;;;20.02;57.49;100574.53;10512856;28;20052;-75
2024/01/09 13:42:31;;;;;;;3.40;1.48;;;;;;;19.95;58.69;100579.16;10510645;28;20127;-75
2024/01/09 13:47:54;;;;;;;7.15;2.70;;;;;;;19.87;60.12;100576.66;10504612;28;20808;-76
2024/01/09 13:53:20;;;;;;;4.63;1.10;;;;;;;19.73;59.98;100572.56;10500612;28;20248;-76
2024/01/09 13:58:42;;;;;;;7.63;2.65;;;;;;;19.40;61.57;100564.41;10520993;28;20101;-77
2024/01/09 14:04:09;;;;;;;10.35;4.05;;;;;;;19.20;64.79;100565.78;10520579;28;20377;-78
2024/01/09 14:09:33;;;;;;;6.05;2.38;;;;;;;18.97;68.04;100564.50;10534757;28;20559;-76
2024/01/09 14:14:56;;;;;;;8.75;2.53;;;;;;;18.20;75.90;100556.25;10532304;28;20051;-75
2024/01/09 14:20:19;;;;;;;11.55;5.00;;;;;;;18.04;78.11;100592.19;10520273;28;20045;-75
2024/01/09 14:25:44;;;;;;;9.85;4.80;;;;;;;18.25;78.13;100597.13;10517688;28;20440;-76
2024/01/09 14:31:06;;;;;;;2.72;1.00;;;;;;;18.12;70.92;100616.94;10531047;28;20515;-77
2024/01/09 14:36:29;;;;;;;10.73;6.07;;;;;;;18.07;69.45;100623.28;10506671;28;20132;-78
2024/01/09 14:41:53;;;;;;;5.28;2.58;;;;;;;17.71;69.92;100598.09;10531725;28;20051;-76
2024/01/09 14:47:18;;;;;;;5.47;1.95;;;;;;;17.36;72.02;100599.47;10525827;28;20543;-75
2024/01/09 14:52:41;;;;;;;3.42;1.52;;;;;;;17.07;74.33;100604.34;10517282;28;20044;-78
2024/01/09 14:58:05;;;;;;;5.25;2.13;;;;;;;16.76;77.08;100590.53;10515769;28;20132;-77
2024/01/09 15:03:27;;;;;;;2.00;1.10;;;;;;;16.38;80.22;100593.59;10529915;28;20105;-77
2024/01/09 15:08:50;;;;;;;2.15;0.75;;;;;;;16.14;82.81;100599.19;10502205;28;20134;-77
2024/01/09 15:14:14;;;;;;;1.63;0.73;;;;;;;16.01;83.92;100594.88;10509792;28;20040;-78
2024/01/09 15:19:36;;;;;;;1.70;0.80;;;;;;;15.69;87.36;100603.13;10521511;28;20062;-77
2024/01/09 15:24:59;;;;;;;1.25;0.77;;;;;;;15.68;87.47;100635.97;10527557;28;20671;-77
2024/01/09 15:30:23;;;;;;;1.65;0.80;;;;;;;15.48;90.43;100626.31;10515056;28;20396;-77
2024/01/09 15:35:45;;;;;;;3.25;1.05;;;;;;;15.38;92.36;100637.00;10516467;28;20444;-78
2024/01/09 15:41:09;;;;;;;5.38;1.65;;;;;;;15.44;91.54;100639.63;10519042;28;20048;-78
2024/01/09 15:46:33;;;;;;;2.13;1.10;;;;;;;15.69;89.21;100662.56;10507333;28;20046;-77
2024/01/09 15:51:55;;;;;;;6.65;1.60;;;;;;;15.91;87.68;100669.50;10529909;28;20159;-77
2024/01/09 15:57:18;;;;;;;3.35;1.38;;;;;;;16.18;86.50;100680.81;10524894;28;20265;-78
2024/01/09 16:02:42;;;;;;;2.20;1.30;;;;;;;16.16;89.37;100679.94;10529724;28;20071;-77
2024/01/09 16:08:09;;;;;;;7.22;1.67;;;;;;;15.82;100.00;100693.50;10521208;28;20048;-75
2024/01/09 16:13:32;;;;;;;45.03;29.63;;;;;;;15.32;100.00;100714.19;10527112;28;20462;-79
2024/01/09 16:18:56;;;;;;;23.20;20.45;;;;;;;14.88;100.00;100719.69;10527138;28;20056;-79
2024/01/09 16:24:19;;;;;;;42.33;30.08;;;;;;;14.57;100.00;100716.22;10527937;28;20056;-78
2024/01/09 16:29:41;;;;;;;43.15;36.00;;;;;;;14.38;100.00;100733.00;10524511;28;21344;-78
2024/01/09 16:35:06;;;;;;;26.55;20.40;;;;;;;14.15;100.00;100741.84;10521730;28;20051;-79
2024/01/09 16:40:29;;;;;;;17.05;8.20;;;;;;;14.06;100.00;100743.59;10505985;28;20063;-80
2024/01/09 16:45:52;;;;;;;20.35;8.82;;;;;;;14.06;100.00;100741.84;10502505;28;20052;-81
2024/01/09 16:51:17;;;;;;;20.38;13.85;;;;;;;13.83;100.00;100722.34;10536366;28;20036;-77
2024/01/09 16:56:39;;;;;;;10.82;4.55;;;;;;;13.90;100.00;100732.97;10518562;28;20059;-80
2024/01/09 17:02:03;;;;;;;35.30;22.80;;;;;;;14.04;100.00;100735.66;10513150;28;20072;-76
2024/01/09 17:07:27;;;;;;;10.40;5.15;;;;;;;14.01;100.00;100732.97;10509818;28;20082;-76
2024/01/09 17:12:49;;;;;;;7.40;3.13;;;;;;;13.73;100.00;100734.69;10531146;28;20056;-78
2024/01/09 17:18:13;;;;;;;18.83;11.57;;;;;;;13.82;100.00;100752.41;10501403;28;20055;-77
2024/01/09 17:23:36;;;;;;;10.20;5.85;;;;;;;13.81;100.00;100735.59;10534820;28;20126;-77
2024/01/09 17:29:01;;;;;;;15.65;8.65;;;;;;;13.49;100.00;100730.22;10517893;28;20040;-76
2024/01/09 17:34:23;;;;;;;8.05;4.85;;;;;;;13.35;100.00;100731.06;10531588;28;20408;-76
2024/01/09 17:39:47;;;;;;;10.80;4.95;;;;;;;13.27;100.00;100725.72;10525495;28;20048;-77
2024/01/09 17:45:10;;;;;;;8.93;4.57;;;;;;;13.44;100.00;100728.44;10515539;28;20043;-76
2024/01/09 17:50:33;;;;;;;9.38;4.93;;;;;;;13.53;100.00;100737.31;10509575;28;20055;-75
2024/01/09 17:55:57;;;;;;;8.63;3.00;;;;;;;13.59;100.00;100752.34;10516310;28;20044;-77
2024/01/09 18:01:20;;;;;;;43.00;34.45;;;;;;;13.74;100.00;100765.66;10529939;28;20050;-75
2024/01/09 18:06:44;;;;;;;38.78;30.33;;;;;;;13.76;100.00;100769.22;10534032;28;20048;-76
2024/01/09 18:12:08;;;;;;;21.10;17.35;;;;;;;13.59;100.00;100762.09;10522188;28;20048;-75
2024/01/09 18:17:32;;;;;;;7.32;3.90;;;;;;;13.51;100.00;100767.38;10522326;28;20054;-75
2024/01/09 18:22:54;;;;;;;6.45;2.58;;;;;;;13.30;100.00;100746.06;10537849;28;20052;-75
2024/01/09 18:28:21;;;;;;;3.90;2.20;;;;;;;13.24;100.00;100746.94;10521825;28;20048;-75
2024/01/09 18:33:44;;;;;;;10.20;7.07;;;;;;;13.19;100.00;100763.69;10517736;28;20129;-75
2024/01/09 18:39:08;;;;;;;29.60;20.20;;;;;;;13.15;100.00;100762.78;10527456;28;20194;-74
2024/01/09 18:44:33;;;;;;;17.63;14.20;;;;;;;13.12;100.00;100765.41;10497787;28;20500;-75
2024/01/09 18:49:55;;;;;;;15.95;9.70;;;;;;;13.06;100.00;100768.00;10532763;28;20061;-75
2024/01/09 18:55:19;;;;;;;15.05;11.82;;;;;;;12.86;100.00;100770.53;10507515;28;20051;-75
2024/01/09 19:00:44;;;;;;;20.67;13.30;;;;;;;12.79;100.00;100779.31;10512409;28;20056;-76
2024/01/09 19:06:07;;;;;;;18.40;13.63;;;;;;;12.67;100.00;100793.34;10527345;28;20036;-76
2024/01/09 19:11:30;;;;;;;13.35;9.07;;;;;;;12.61;100.00;100798.59;10534710;28;20176;-75
2024/01/09 19:16:54;;;;;;;30.50;18.02;;;;;;;12.60;100.00;100810.06;10525394;28;20044;-76
2024/01/09 19:22:16;;;;;;;15.05;8.73;;;;;;;12.49;100.00;100821.44;10508326;28;20044;-76
2024/01/09 19:27:40;;;;;;;16.15;6.60;;;;;;;12.36;100.00;100837.22;10517146;28;20399;-75
2024/01/09 19:33:05;;;;;;;12.18;8.43;;;;;;;12.23;100.00;100842.38;10532843;28;20098;-74
2024/01/09 19:38:27;;;;;;;13.73;9.63;;;;;;;12.28;100.00;100860.06;10511959;28;20093;-75
2024/01/09 19:43:50;;;;;;;13.85;8.90;;;;;;;12.38;100.00;100869.91;10518029;28;20062;-75
2024/01/09 19:49:13;;;;;;;7.05;3.42;;;;;;;12.43;100.00;100869.94;10529842;28;20052;-75
2024/01/09 19:54:37;;;;;;;5.32;3.50;;;;;;;12.12;100.00;100870.50;10514041;28;20051;-75
2024/01/09 20:00:00;;;;;;;7.13;3.95;;;;;;;12.62;100.00;100879.81;10518297;28;20044;-75
2024/01/09 20:05:24;;;;;;;7.75;4.15;;;;;;;12.88;100.00;100879.16;10530082;28;20515;-75
2024/01/09 20:10:46;;;;;;;12.98;9.80;;;;;;;13.03;100.00;100897.84;10537395;28;20101;-75
2024/01/09 20:16:15;;;;;;;22.80;14.35;;;;;;;12.83;100.00;100907.38;10527121;28;20093;-77
2024/01/09 20:21:39;;;;;;;6.60;5.05;;;;;;;12.59;100.00;100908.94;10513856;28;21348;-76
2024/01/09 20:27:02;;;;;;;7.90;5.75;;;;;;;12.68;100.00;100914.31;10528635;28;20040;-75
2024/01/09 20:32:24;;;;;;;9.10;5.28;;;;;;;12.70;100.00;100931.13;10525206;28;20047;-76
2024/01/09 20:37:49;;;;;;;7.53;3.65;;;;;;;12.62;100.00;100938.09;10520624;28;20036;-76
2024/01/09 20:43:12;;;;;;;6.97;3.47;;;;;;;12.73;100.00;100935.56;10519938;28;20051;-75
2024/01/09 20:48:35;;;;;;;7.13;3.13;;;;;;;12.81;100.00;100935.59;10528558;28;20048;-76
2024/01/09 20:53:59;;;;;;;3.38;1.70;;;;;;;12.87;100.00;100947.16;10519904;28;20044;-77
2024/01/09 20:59:21;;;;;;;6.72;4.53;;;;;;;12.84;100.00;100946.25;10537922;28;20046;-76
2024/01/09 21:04:44;;;;;;;7.97;4.70;;;;;;;12.83;100.00;100945.34;10516189;28;20136;-75
2024/01/09 21:10:10;;;;;;;2.63;1.70;;;;;;;12.91;100.00;100946.31;10544937;28;20055;-76
2024/01/09 21:15:33;;;;;;;6.28;5.32;;;;;;;12.83;100.00;100947.13;10522475;28;20431;-75
2024/01/09 21:20:55;;;;;;;3.63;1.90;;;;;;;12.78;100.00;100952.38;10535025;28;20097;-75
2024/01/09 21:26:20;;;;;;;9.52;1.38;;;;;;;12.53;100.00;100956.56;10523704;28;20055;-75
2024/01/09 21:31:42;;;;;;;2.42;1.38;;;;;;;12.46;100.00;100944.13;10544250;28;20055;-75
2024/01/09 21:37:05;;;;;;;2.60;1.10;;;;;;;12.61;100.00;100944.25;10532926;28;20048;-75
2024/01/09 21:42:29;;;;;;;6.93;1.05;;;;;;;12.59;100.00;100934.53;10533569;28;20093;-75
2024/01/09 21:47:52;;;;;;;4.32;2.53;;;;;;;12.86;100.00;100947.16;10532236;28;20076;-75
2024/01/09 21:53:14;;;;;;;5.10;3.25;;;;;;;12.98;100.00;100941.97;10519979;28;20075;-75
2024/01/09 21:58:38;;;;;;;3.05;1.40;;;;;;;12.85;100.00;100938.31;10549138;28;20048;-75
2024/01/09 22:04:02;;;;;;;1.30;0.60;;;;;;;12.41;100.00;100931.69;10528402;28;20055;-75
2024/01/09 22:09:24;;;;;;;4.43;1.17;;;;;;;12.32;100.00;100930.72;10519063;28;20048;-76
2024/01/09 22:14:48;;;;;;;1.80;0.70;;;;;;;12.54;100.00;100942.41;10513400;28;20037;-75
2024/01/09 22:20:12;;;;;;;4.28;1.60;;;;;;;12.75;100.00;100939.97;10518109;28;20523;-75
2024/01/09 22:25:35;;;;;;;3.05;0.82;;;;;;;12.77;100.00;100943.53;10532903;28;20048;-75
2024/01/09 22:30:59;;;;;;;6.22;3.50;;;;;;;13.02;100.00;100941.09;10532082;28;20407;-75
2024/01/09 22:36:21;;;;;;;7.10;3.47;;;;;;;13.14;100.00;100959.78;10518269;28;20488;-75
2024/01/09 22:41:44;;;;;;;8.93;3.97;;;;;;;13.26;100.00;100972.28;10532310;28;20055;-75
2024/01/09 22:47:08;;;;;;;8.63;3.33;;;;;;;13.41;100.00;100959.13;10530704;28;20050;-75
2024/01/09 22:52:31;;;;;;;12.10;4.05;;;;;;;13.47;100.00;100960.03;10519337;28;20093;-75
2024/01/09 22:57:53;;;;;;;12.45;3.97;;;;;;;13.50;100.00;100960.09;10517265;28;20075;-75
2024/01/09 23:03:17;;;;;;;7.90;2.30;;;;;;;13.41;100.00;100977.69;10531074;28;20496;-75
2024/01/09 23:08:40;;;;;;;10.50;2.72;;;;;;;13.53;100.00;100989.25;10516064;28;20057;-75
2024/01/09 23:14:02;;;;;;;13.00;3.70;;;;;;;13.67;100.00;100991.13;10530573;28;20032;-74
2024/01/09 23:19:26;;;;;;;9.60;3.47;;;;;;;13.82;100.00;100983.28;10517221;28;20488;-75
2024/01/09 23:24:49;;;;;;;17.85;5.15;;;;;;;13.73;100.00;101000.00;10530656;28;20036;-75
2024/01/09 23:30:12;;;;;;;12.10;3.08;;;;;;;13.70;100.00;101001.78;10516082;28;20050;-75
2024/01/09 23:35:36;;;;;;;10.88;2.47;;;;;;;13.43;100.00;101023.66;10529773;28;20092;-77
2024/01/09 23:40:59;;;;;;;18.40;3.90;;;;;;;13.27;100.00;101030.59;10528128;28;20056;-76
2024/01/09 23:46:21;;;;;;;8.75;2.45;;;;;;;13.30;100.00;101019.16;10516373;28;20106;-76
2024/01/09 23:51:45;;;;;;;11.40;3.03;;;;;;;13.29;100.00;101028.84;10530632;28;20052;-75
2024/01/09 23:57:08;;;;;;;10.38;2.20;;;;;;;13.24;100.00;101035.00;10531236;28;20044;-75
